Time;durP1;ratioP1;P1;durP2;ratioP2;P2;SDS_P1;SDS_P2;PMS_P1;PMS_P2;Temp;Humidity;BMP_temperature;BMP_pressure;BME280_temperature;BME280_humidity;BME280_pressure;Samples;Min_cycle;Max_cycle;Signal;HPM_P1;HPM_P2
2022/11/21 00:00:15;;;;;;;20.60;4.50;;;;;;;;;;5094810;28;20106;-54
2022/11/21 00:02:40;;;;;;;40.78;5.28;;;;;;;;;;5094738;28;20016;-54
2022/11/21 00:05:06;;;;;;;40.10;5.88;;;;;;;;;;5094422;28;20066;-56
2022/11/21 00:07:31;;;;;;;55.65;6.38;;;;;;;;;;5094654;28;20077;-55
2022/11/21 00:09:56;;;;;;;38.22;7.57;;;;;;;;;;5094856;28;20105;-52
2022/11/21 00:12:22;;;;;;;38.90;6.20;;;;;;;;;;5094928;28;20028;-52
2022/11/21 00:14:47;;;;;;;62.50;8.02;;;;;;;;;;5093525;28;20016;-53
2022/11/21 00:17:12;;;;;;;50.28;7.07;;;;;;;;;;5094311;28;20040;-53
2022/11/21 00:19:38;;;;;;;56.10;8.20;;;;;;;;;;5109922;28;20032;-52
2022/11/21 00:22:04;;;;;;;50.20;8.07;;;;;;;;;;5094576;28;20020;-53
2022/11/21 00:24:29;;;;;;;57.45;9.10;;;;;;;;;;5094544;28;20376;-55
2022/11/21 00:26:55;;;;;;;57.22;10.00;;;;;;;;;;5110315;28;20030;-56
2022/11/21 00:29:20;;;;;;;50.88;10.38;;;;;;;;;;5094132;28;20100;-56
2022/11/21 00:31:45;;;;;;;53.45;11.32;;;;;;;;;;5094116;28;20534;-61
2022/11/21 00:34:11;;;;;;;59.72;10.60;;;;;;;;;;5093999;28;20019;-55
2022/11/21 00:36:36;;;;;;;72.45;12.45;;;;;;;;;;5094251;28;20107;-57
2022/11/21 00:39:02;;;;;;;52.92;10.57;;;;;;;;;;5093855;28;20063;-55
2022/11/21 00:41:27;;;;;;;66.88;13.82;;;;;;;;;;5093917;28;20024;-56
2022/11/21 00:43:52;;;;;;;77.22;12.95;;;;;;;;;;5094067;28;20073;-58
2022/11/21 00:46:18;;;;;;;48.17;11.60;;;;;;;;;;5093930;28;20031;-58
2022/11/21 00:48:43;;;;;;;57.33;13.65;;;;;;;;;;5094031;28;20102;-55
2022/11/21 00:51:09;;;;;;;72.88;16.98;;;;;;;;;;5093678;28;20035;-58
2022/11/21 00:53:34;;;;;;;60.70;13.95;;;;;;;;;;5093806;28;20460;-59
2022/11/21 00:55:59;;;;;;;57.13;15.80;;;;;;;;;;5093684;28;20365;-59
2022/11/21 00:58:25;;;;;;;56.95;14.30;;;;;;;;;;5093523;28;20124;-63
2022/11/21 01:00:50;;;;;;;74.72;16.50;;;;;;;;;;5093752;28;20016;-65
2022/11/21 01:03:16;;;;;;;49.75;15.05;;;;;;;;;;5093465;28;20032;-64
2022/11/21 01:05:41;;;;;;;58.15;14.48;;;;;;;;;;5093644;28;20019;-62
2022/11/21 01:08:07;;;;;;;54.00;15.02;;;;;;;;;;5093711;28;20024;-61
2022/11/21 01:10:33;;;;;;;57.20;15.27;;;;;;;;;;5093560;28;20422;-58
2022/11/21 01:12:58;;;;;;;50.30;14.43;;;;;;;;;;5091796;28;20099;-56
2022/11/21 01:15:23;;;;;;;57.97;15.27;;;;;;;;;;5093422;28;20017;-56
2022/11/21 01:17:49;;;;;;;57.00;14.85;;;;;;;;;;5093057;28;20024;-57
2022/11/21 01:20:14;;;;;;;43.20;14.23;;;;;;;;;;5093390;28;20051;-56
2022/11/21 01:22:40;;;;;;;42.53;13.82;;;;;;;;;;5093659;28;20420;-57
2022/11/21 01:25:05;;;;;;;41.03;14.43;;;;;;;;;;5093199;28;20024;-55
2022/11/21 01:27:31;;;;;;;43.33;15.25;;;;;;;;;;5092969;28;20483;-56
2022/11/21 01:29:56;;;;;;;39.72;14.25;;;;;;;;;;5093069;28;20107;-54
2022/11/21 01:32:22;;;;;;;41.65;14.35;;;;;;;;;;5091722;28;20031;-57
2022/11/21 01:34:48;;;;;;;43.40;14.55;;;;;;;;;;5092999;28;20020;-58
2022/11/21 01:37:13;;;;;;;46.13;14.88;;;;;;;;;;5091685;28;20023;-56
2022/11/21 01:39:38;;;;;;;46.58;14.00;;;;;;;;;;5091774;28;20092;-56
2022/11/21 01:42:04;;;;;;;42.75;14.27;;;;;;;;;;5093173;28;20472;-57
2022/11/21 01:44:49;;;;;;;44.38;14.55;;;;;;;;;;5091548;28;20405;-57
2022/11/21 01:47:15;;;;;;;44.45;13.88;;;;;;;;;;5092622;28;20020;-57
2022/11/21 01:49:41;;;;;;;58.20;15.43;;;;;;;;;;5092958;28;20028;-57
2022/11/21 01:52:08;;;;;;;45.35;15.20;;;;;;;;;;5091618;28;20059;-56
2022/11/21 01:54:42;;;;;;;36.92;13.68;;;;;;;;;;5091058;28;20019;-57
2022/11/21 01:57:19;;;;;;;32.92;11.30;;;;;;;;;;5091851;28;20052;-58
2022/11/21 01:59:56;;;;;;;22.95;8.57;;;;;;;;;;5092343;28;20451;-57
2022/11/21 02:02:23;;;;;;;23.65;11.20;;;;;;;;;;5108322;28;20012;-57
2022/11/21 02:04:49;;;;;;;24.08;10.43;;;;;;;;;;5091207;28;20027;-56
2022/11/21 02:07:16;;;;;;;27.30;12.85;;;;;;;;;;5090943;28;20019;-57
2022/11/21 02:09:44;;;;;;;23.63;10.70;;;;;;;;;;5092300;28;20026;-55
2022/11/21 02:12:17;;;;;;;11.35;4.90;;;;;;;;;;5092268;28;20063;-56
2022/11/21 02:14:43;;;;;;;28.42;10.07;;;;;;;;;;5092565;28;20487;-57
2022/11/21 02:17:08;;;;;;;14.55;5.63;;;;;;;;;;5090887;28;20028;-56
2022/11/21 02:19:33;;;;;;;25.52;12.90;;;;;;;;;;5092065;28;20118;-56
2022/11/21 02:22:25;;;;;;;19.92;9.32;;;;;;;;;;5092574;28;20103;-56
2022/11/21 02:25:01;;;;;;;18.55;10.32;;;;;;;;;;5083549;28;20115;-55
2022/11/21 02:27:27;;;;;;;25.13;11.95;;;;;;;;;;5092429;28;20059;-55
2022/11/21 02:29:52;;;;;;;14.57;6.32;;;;;;;;;;5092487;28;20139;-56
2022/11/21 02:32:30;;;;;;;24.67;9.32;;;;;;;;;;5092182;28;20353;-56
2022/11/21 02:34:55;;;;;;;20.83;9.68;;;;;;;;;;5091815;28;20065;-56
2022/11/21 02:37:21;;;;;;;23.38;10.50;;;;;;;;;;5092363;28;20024;-55
2022/11/21 02:39:46;;;;;;;21.83;9.65;;;;;;;;;;5095981;28;20477;-55
2022/11/21 02:42:27;;;;;;;26.30;10.77;;;;;;;;;;5112098;28;20031;-56
2022/11/21 02:44:59;;;;;;;28.63;10.35;;;;;;;;;;5096460;28;20082;-56
2022/11/21 02:47:25;;;;;;;20.70;9.80;;;;;;;;;;5094751;28;20342;-58
2022/11/21 02:49:59;;;;;;;20.60;8.32;;;;;;;;;;5096599;28;20073;-56
2022/11/21 02:52:24;;;;;;;18.63;9.27;;;;;;;;;;5096784;28;20060;-56
2022/11/21 02:54:50;;;;;;;23.13;10.07;;;;;;;;;;5096179;28;20028;-56
2022/11/21 02:57:15;;;;;;;21.38;10.60;;;;;;;;;;5094131;28;20079;-56
2022/11/21 02:59:41;;;;;;;24.67;10.50;;;;;;;;;;5095897;28;20125;-57
2022/11/21 03:02:06;;;;;;;20.92;10.05;;;;;;;;;;5095829;28;20024;-56
2022/11/21 03:04:31;;;;;;;22.00;10.88;;;;;;;;;;5096450;28;20020;-57
2022/11/21 03:06:57;;;;;;;20.25;11.13;;;;;;;;;;5094468;28;20031;-57
2022/11/21 03:09:22;;;;;;;21.70;10.50;;;;;;;;;;5095988;28;20121;-57
2022/11/21 03:11:47;;;;;;;22.70;10.70;;;;;;;;;;5094730;28;20031;-58
2022/11/21 03:14:13;;;;;;;15.32;8.82;;;;;;;;;;5095792;28;20008;-56
2022/11/21 03:16:38;;;;;;;15.63;9.43;;;;;;;;;;5095595;28;20502;-55
2022/11/21 03:19:03;;;;;;;20.92;9.15;;;;;;;;;;5111296;28;20388;-56
2022/11/21 03:21:29;;;;;;;16.80;9.10;;;;;;;;;;5111295;28;20034;-56
2022/11/21 03:23:54;;;;;;;16.35;8.02;;;;;;;;;;5095939;28;20016;-57
2022/11/21 03:26:19;;;;;;;16.52;9.25;;;;;;;;;;5095833;28;20460;-57
2022/11/21 03:28:45;;;;;;;17.65;9.88;;;;;;;;;;5095567;28;20012;-56
2022/11/21 03:31:10;;;;;;;16.02;8.35;;;;;;;;;;5110779;28;20019;-57
2022/11/21 03:33:35;;;;;;;18.83;9.77;;;;;;;;;;5095491;28;20020;-57
2022/11/21 03:36:01;;;;;;;17.40;9.48;;;;;;;;;;5111163;28;20017;-57
2022/11/21 03:38:26;;;;;;;17.70;9.43;;;;;;;;;;5095184;28;20077;-56
2022/11/21 03:40:52;;;;;;;12.90;6.53;;;;;;;;;;5095592;28;20081;-56
2022/11/21 03:43:17;;;;;;;13.93;6.80;;;;;;;;;;5095100;28;20073;-58
2022/11/21 03:45:45;;;;;;;16.92;8.18;;;;;;;;;;5110758;28;20012;-58
2022/11/21 03:48:10;;;;;;;16.38;8.88;;;;;;;;;;5110731;28;20043;-57
2022/11/21 03:50:35;;;;;;;16.92;8.52;;;;;;;;;;5094930;28;20499;-57
2022/11/21 03:53:01;;;;;;;13.13;8.13;;;;;;;;;;5110550;28;20028;-56
2022/11/21 03:55:26;;;;;;;15.88;8.68;;;;;;;;;;5110721;28;20365;-57
2022/11/21 03:57:51;;;;;;;15.80;8.60;;;;;;;;;;5094563;28;20101;-58
2022/11/21 04:00:17;;;;;;;16.13;7.68;;;;;;;;;;5094576;28;20082;-58
2022/11/21 04:02:42;;;;;;;11.88;6.35;;;;;;;;;;5110283;28;20024;-57
2022/11/21 04:05:08;;;;;;;18.23;8.18;;;;;;;;;;5094413;28;20372;-56
2022/11/21 04:07:33;;;;;;;13.45;8.10;;;;;;;;;;5094695;28;20023;-57
2022/11/21 04:09:58;;;;;;;14.88;7.97;;;;;;;;;;5094335;28;20027;-56
2022/11/21 04:12:24;;;;;;;15.10;8.23;;;;;;;;;;5094687;28;20016;-58
2022/11/21 04:14:49;;;;;;;18.67;8.10;;;;;;;;;;5110072;28;20023;-58
2022/11/21 04:17:16;;;;;;;16.10;8.50;;;;;;;;;;5094278;28;20020;-59
2022/11/21 04:19:41;;;;;;;15.93;8.45;;;;;;;;;;5110257;28;20032;-57
2022/11/21 04:22:06;;;;;;;14.15;7.38;;;;;;;;;;5094512;28;20077;-57
2022/11/21 04:24:32;;;;;;;12.65;7.38;;;;;;;;;;5094533;28;20020;-57
2022/11/21 04:26:57;;;;;;;13.20;6.35;;;;;;;;;;5094339;28;20020;-59
2022/11/21 04:29:22;;;;;;;15.57;8.75;;;;;;;;;;5094706;28;20012;-57
2022/11/21 04:31:48;;;;;;;15.50;6.03;;;;;;;;;;5110025;28;20031;-56
2022/11/21 04:34:13;;;;;;;11.85;6.72;;;;;;;;;;5110012;28;20523;-56
2022/11/21 04:36:39;;;;;;;11.95;6.03;;;;;;;;;;5094082;28;20437;-56
2022/11/21 04:39:04;;;;;;;12.07;7.13;;;;;;;;;;5093900;28;20028;-57
2022/11/21 04:41:29;;;;;;;12.18;5.53;;;;;;;;;;5109741;28;20073;-57
2022/11/21 04:43:55;;;;;;;9.43;6.20;;;;;;;;;;5094033;28;20353;-56
2022/11/21 04:46:20;;;;;;;11.13;5.97;;;;;;;;;;5109569;28;20062;-57
2022/11/21 04:48:45;;;;;;;11.80;5.35;;;;;;;;;;5109640;28;20486;-57
2022/11/21 04:51:11;;;;;;;12.80;5.95;;;;;;;;;;5109255;28;20024;-57
2022/11/21 04:53:36;;;;;;;11.93;6.88;;;;;;;;;;5109497;28;20032;-56
2022/11/21 04:56:03;;;;;;;11.10;6.13;;;;;;;;;;5109147;28;20091;-57
2022/11/21 04:58:28;;;;;;;11.10;6.47;;;;;;;;;;5108790;28;20075;-56
2022/11/21 05:00:53;;;;;;;11.93;5.95;;;;;;;;;;5093007;28;20051;-57
2022/11/21 05:03:19;;;;;;;11.57;5.97;;;;;;;;;;5109051;28;20016;-57
2022/11/21 05:05:45;;;;;;;13.98;6.78;;;;;;;;;;5109409;28;20437;-55
2022/11/21 05:08:10;;;;;;;13.05;6.47;;;;;;;;;;5109300;28;20012;-57
2022/11/21 05:13:19;;;;;;;11.30;6.10;;;;;;;;;;5108917;28;20020;-58
2022/11/21 05:13:20;;;;;;;10.50;6.03;;;;;;;;;;5093038;28;20468;-58
2022/11/21 05:15:50;;;;;;;13.90;7.03;;;;;;;;;;5093651;28;20024;-58
2022/11/21 05:18:15;;;;;;;10.98;5.45;;;;;;;;;;5093038;28;20516;-59
2022/11/21 05:20:41;;;;;;;11.60;7.00;;;;;;;;;;5093384;28;20058;-58
2022/11/21 05:23:06;;;;;;;12.80;7.22;;;;;;;;;;5092918;28;20024;-57
2022/11/21 05:25:32;;;;;;;12.73;7.50;;;;;;;;;;5108622;28;20028;-58
2022/11/21 05:27:57;;;;;;;12.20;7.38;;;;;;;;;;5108231;28;20024;-58
2022/11/21 05:30:22;;;;;;;14.65;7.18;;;;;;;;;;5108602;28;20373;-58
2022/11/21 05:32:48;;;;;;;13.65;8.25;;;;;;;;;;5092760;28;20067;-60
2022/11/21 05:35:13;;;;;;;13.90;7.90;;;;;;;;;;5108419;28;20028;-58
2022/11/21 05:37:39;;;;;;;15.35;8.38;;;;;;;;;;5092524;28;20013;-58
2022/11/21 05:40:04;;;;;;;15.75;7.60;;;;;;;;;;5092601;28;20039;-60
2022/11/21 05:45:13;;;;;;;12.85;8.25;;;;;;;;;;5091992;28;20051;-59
2022/11/21 05:47:40;;;;;;;13.50;8.10;;;;;;;;;;5092498;28;20456;-59
2022/11/21 05:50:05;;;;;;;14.88;8.80;;;;;;;;;;5107982;28;20402;-60
2022/11/21 05:52:31;;;;;;;15.98;8.52;;;;;;;;;;5092392;28;20060;-58
2022/11/21 05:54:56;;;;;;;14.32;8.73;;;;;;;;;;5092329;28;20016;-58
2022/11/21 05:57:21;;;;;;;14.35;8.32;;;;;;;;;;5092409;28;20079;-58
2022/11/21 05:59:47;;;;;;;13.07;8.20;;;;;;;;;;5107892;28;20545;-59
2022/11/21 06:04:56;;;;;;;14.13;8.25;;;;;;;;;;5091675;28;20178;-62
2022/11/21 06:07:21;;;;;;;16.75;8.88;;;;;;;;;;5092077;28;20016;-61
2022/11/21 06:09:47;;;;;;;16.45;7.55;;;;;;;;;;5107450;28;20056;-64
2022/11/21 06:12:12;;;;;;;10.88;5.63;;;;;;;;;;5107238;28;20024;-59
2022/11/21 06:14:38;;;;;;;14.60;7.03;;;;;;;;;;5091741;28;20024;-59
2022/11/21 06:17:03;;;;;;;9.50;4.10;;;;;;;;;;5107300;28;20027;-60
2022/11/21 06:19:28;;;;;;;20.17;8.45;;;;;;;;;;5107427;28;20378;-58
2022/11/21 06:21:54;;;;;;;24.75;12.82;;;;;;;;;;5091830;28;20529;-60
2022/11/21 06:24:19;;;;;;;21.45;13.35;;;;;;;;;;5091559;28;20044;-60
2022/11/21 06:26:45;;;;;;;19.63;10.68;;;;;;;;;;5091849;28;20020;-60
2022/11/21 06:29:11;;;;;;;18.08;11.93;;;;;;;;;;5091517;28;20038;-59
2022/11/21 06:31:37;;;;;;;26.83;12.25;;;;;;;;;;5091742;28;20023;-59
2022/11/21 06:34:02;;;;;;;23.80;11.55;;;;;;;;;;5091692;28;20008;-60
2022/11/21 06:36:28;;;;;;;20.27;10.27;;;;;;;;;;5091863;28;20012;-60
2022/11/21 06:38:54;;;;;;;38.08;11.88;;;;;;;;;;5090133;28;20028;-60
2022/11/21 06:41:24;;;;;;;10.75;4.13;;;;;;;;;;5091559;28;20013;-59
2022/11/21 06:43:49;;;;;;;21.95;10.65;;;;;;;;;;5091994;28;20111;-59
2022/11/21 06:46:14;;;;;;;19.17;11.18;;;;;;;;;;5091902;28;20436;-60
2022/11/21 06:48:41;;;;;;;10.18;5.10;;;;;;;;;;5091293;28;20016;-59
2022/11/21 06:51:07;;;;;;;13.48;6.00;;;;;;;;;;5090993;28;20031;-58
2022/11/21 06:53:33;;;;;;;4.05;2.50;;;;;;;;;;5091537;28;20020;-59
2022/11/21 06:55:59;;;;;;;8.82;4.75;;;;;;;;;;5091439;28;20495;-60
2022/11/21 06:58:24;;;;;;;12.85;7.03;;;;;;;;;;5106093;28;20048;-61
2022/11/21 07:00:50;;;;;;;11.98;6.07;;;;;;;;;;5106759;28;20028;-60
2022/11/21 07:03:15;;;;;;;9.55;5.80;;;;;;;;;;5091167;28;20405;-60
2022/11/21 07:05:41;;;;;;;12.20;5.97;;;;;;;;;;5090873;28;20087;-60
2022/11/21 07:08:06;;;;;;;7.95;4.13;;;;;;;;;;5091131;28;20024;-60
2022/11/21 07:10:31;;;;;;;9.07;3.95;;;;;;;;;;5091465;28;20019;-58
2022/11/21 07:15:42;;;;;;;7.10;4.68;;;;;;;;;;5091674;28;20470;-60
2022/11/21 07:18:07;;;;;;;10.98;5.63;;;;;;;;;;5091172;28;20036;-60
2022/11/21 07:20:32;;;;;;;8.18;5.10;;;;;;;;;;5090878;28;20073;-61
2022/11/21 07:22:58;;;;;;;6.22;3.50;;;;;;;;;;5090782;28;20440;-59
2022/11/21 07:25:23;;;;;;;8.73;5.07;;;;;;;;;;5093778;28;20023;-59
2022/11/21 07:27:49;;;;;;;5.20;3.83;;;;;;;;;;5094657;28;20025;-59
2022/11/21 07:30:14;;;;;;;7.95;5.35;;;;;;;;;;5094187;28;20056;-59
2022/11/21 07:32:40;;;;;;;0.00;0.00;;;;;;;;;;5109898;28;20016;-59
2022/11/21 07:35:06;;;;;;;0.55;0.55;;;;;;;;;;5109373;28;20107;-61
2022/11/21 07:37:32;;;;;;;11.60;0.65;;;;;;;;;;5094662;28;20065;-61
2022/11/21 07:39:57;;;;;;;0.45;0.45;;;;;;;;;;5094354;28;20035;-61
2022/11/21 07:42:23;;;;;;;0.47;0.47;;;;;;;;;;5110324;28;20068;-61
2022/11/21 07:44:48;;;;;;;0.20;0.20;;;;;;;;;;5110236;28;20023;-62
2022/11/21 07:47:14;;;;;;;0.57;0.57;;;;;;;;;;5094280;28;20024;-60
2022/11/21 07:49:39;;;;;;;0.30;0.22;;;;;;;;;;5109643;28;20097;-60
2022/11/21 07:52:05;;;;;;;0.00;0.00;;;;;;;;;;5093987;28;20012;-61
2022/11/21 07:54:30;;;;;;;0.80;0.52;;;;;;;;;;5094358;28;20480;-61
2022/11/21 07:56:55;;;;;;;0.00;0.00;;;;;;;;;;5109651;28;20048;-61
2022/11/21 07:59:21;;;;;;;0.70;0.70;;;;;;;;;;5093916;28;20441;-61
2022/11/21 08:01:46;;;;;;;0.00;0.00;;;;;;;;;;5094016;28;20028;-61
2022/11/21 08:04:12;;;;;;;0.52;0.52;;;;;;;;;;5109591;28;20069;-61
2022/11/21 08:06:37;;;;;;;0.00;0.00;;;;;;;;;;5109660;28;20027;-61
2022/11/21 08:09:03;;;;;;;0.57;0.20;;;;;;;;;;5093647;28;20028;-61
2022/11/21 08:11:29;;;;;;;0.30;0.30;;;;;;;;;;5093865;28;20075;-61
2022/11/21 08:13:55;;;;;;;0.38;0.38;;;;;;;;;;5093751;28;20035;-60
2022/11/21 08:16:22;;;;;;;1.55;0.75;;;;;;;;;;5109355;28;20016;-61
2022/11/21 08:18:48;;;;;;;0.00;0.00;;;;;;;;;;5093122;28;20116;-59
2022/11/21 08:21:13;;;;;;;0.00;0.00;;;;;;;;;;5093936;28;20130;-60
2022/11/21 08:23:39;;;;;;;0.00;0.00;;;;;;;;;;5109511;28;20016;-60
2022/11/21 08:26:07;;;;;;;0.00;0.00;;;;;;;;;;5094271;28;20016;-60
2022/11/21 08:28:32;;;;;;;0.20;0.20;;;;;;;;;;5093920;28;20069;-59
2022/11/21 08:31:01;;;;;;;0.60;0.40;;;;;;;;;;5093232;28;20016;-60
2022/11/21 08:33:27;;;;;;;0.00;0.00;;;;;;;;;;5109485;28;20077;-58
2022/11/21 08:35:52;;;;;;;8.57;0.47;;;;;;;;;;5108543;28;20024;-59
2022/11/21 08:38:18;;;;;;;0.03;0.03;;;;;;;;;;5093642;28;20093;-59
2022/11/21 08:40:43;;;;;;;0.00;0.00;;;;;;;;;;5109214;28;20031;-58
2022/11/21 08:43:08;;;;;;;0.10;0.10;;;;;;;;;;5093626;28;20020;-58
2022/11/21 08:45:35;;;;;;;0.00;0.00;;;;;;;;;;5093833;28;20031;-61
2022/11/21 08:48:01;;;;;;;0.35;0.32;;;;;;;;;;5093583;28;20032;-61
2022/11/21 08:50:30;;;;;;;0.00;0.00;;;;;;;;;;5093416;28;20012;-60
2022/11/21 08:53:00;;;;;;;0.00;0.00;;;;;;;;;;5093551;28;20020;-62
2022/11/21 08:55:25;;;;;;;0.00;0.00;;;;;;;;;;5109326;28;20073;-60
2022/11/21 08:57:51;;;;;;;0.57;0.35;;;;;;;;;;5108874;28;20130;-57
2022/11/21 09:00:16;;;;;;;0.00;0.00;;;;;;;;;;5108615;28;20276;-58
2022/11/21 09:02:42;;;;;;;0.00;0.00;;;;;;;;;;5093509;28;20020;-58
2022/11/21 09:05:08;;;;;;;0.30;0.20;;;;;;;;;;5092986;28;20024;-57
2022/11/21 09:07:33;;;;;;;0.00;0.00;;;;;;;;;;5108990;28;20016;-55
2022/11/21 09:09:59;;;;;;;1.40;0.45;;;;;;;;;;5093492;28;20024;-57
2022/11/21 09:12:24;;;;;;;0.00;0.00;;;;;;;;;;5108697;28;20016;-56
2022/11/21 09:20:19;;;;;;;0.77;0.55;;;;;;;;;;5093077;28;20039;-56
2022/11/21 09:22:44;;;;;;;0.00;0.00;;;;;;;;;;5093237;28;20016;-55
2022/11/21 09:25:10;;;;;;;6.78;1.13;;;;;;;;;;5092563;28;20016;-57
2022/11/21 09:27:35;;;;;;;0.00;0.00;;;;;;;;;;5092860;28;20024;-57
2022/11/21 09:30:00;;;;;;;1.27;1.17;;;;;;;;;;5108517;28;20026;-57
2022/11/21 09:32:26;;;;;;;0.25;0.25;;;;;;;;;;5108837;28;20106;-57
2022/11/21 09:34:51;;;;;;;0.55;0.25;;;;;;;;;;5092676;28;20494;-57
2022/11/21 09:37:17;;;;;;;0.22;0.22;;;;;;;;;;5092992;28;20106;-57
2022/11/21 09:39:42;;;;;;;0.00;0.00;;;;;;;;;;5092750;28;20027;-57
2022/11/21 09:42:26;;;;;;;0.00;0.00;;;;;;;;;;5108135;28;20024;-58
2022/11/21 09:44:52;;;;;;;0.52;0.52;;;;;;;;;;5108178;28;20020;-62
2022/11/21 09:47:20;;;;;;;1.33;0.88;;;;;;;;;;5107551;28;20400;-60
2022/11/21 09:49:48;;;;;;;1.52;1.15;;;;;;;;;;5108070;28;20042;-61
2022/11/21 09:52:16;;;;;;;0.15;0.15;;;;;;;;;;5091843;28;20046;-62
2022/11/21 09:54:53;;;;;;;0.63;0.60;;;;;;;;;;5092038;28;20520;-63
2022/11/21 09:57:21;;;;;;;0.20;0.20;;;;;;;;;;5091987;28;20048;-63
2022/11/21 09:59:47;;;;;;;1.55;0.60;;;;;;;;;;5107755;28;20039;-62
2022/11/21 10:02:14;;;;;;;0.30;0.30;;;;;;;;;;5107466;28;20419;-60
2022/11/21 10:04:40;;;;;;;0.00;0.00;;;;;;;;;;5091608;28;20106;-62
2022/11/21 10:07:09;;;;;;;2.17;0.40;;;;;;;;;;5090030;28;20024;-65
2022/11/21 10:09:37;;;;;;;0.00;0.00;;;;;;;;;;5091511;28;20016;-64
2022/11/21 10:14:57;;;;;;;0.05;0.05;;;;;;;;;;5091291;28;20088;-64
2022/11/21 10:17:38;;;;;;;8.90;5.75;;;;;;;;;;5091435;28;20473;-65
2022/11/21 10:20:09;;;;;;;11.00;5.32;;;;;;;;;;5091469;28;20104;-58
2022/11/21 10:22:48;;;;;;;8.02;4.55;;;;;;;;;;5107280;28;20484;-62
2022/11/21 10:25:19;;;;;;;9.80;5.13;;;;;;;;;;5091283;28;20472;-60
2022/11/21 10:27:47;;;;;;;7.15;4.78;;;;;;;;;;5091080;28;20031;-60
2022/11/21 10:30:18;;;;;;;9.38;4.53;;;;;;;;;;5107384;28;20016;-59
2022/11/21 10:32:45;;;;;;;10.13;4.90;;;;;;;;;;5107050;28;20090;-58
2022/11/21 10:35:15;;;;;;;14.27;2.97;;;;;;;;;;5091283;28;20024;-59
2022/11/21 10:37:55;;;;;;;8.68;3.63;;;;;;;;;;5091033;28;20508;-59
2022/11/21 10:40:23;;;;;;;8.30;3.97;;;;;;;;;;5106776;28;20035;-59
2022/11/21 10:42:55;;;;;;;3.97;2.55;;;;;;;;;;5091424;28;20101;-59
2022/11/21 10:45:21;;;;;;;7.15;3.33;;;;;;;;;;5091119;28;20020;-60
2022/11/21 10:47:49;;;;;;;17.73;4.03;;;;;;;;;;5091327;28;20032;-60
2022/11/21 10:50:32;;;;;;;15.02;4.63;;;;;;;;;;5091593;28;20016;-59
2022/11/21 10:54:31;;;;;;;54.05;6.43;;;;;;;;;;5105926;28;20031;-61
2022/11/21 10:55:58;;;;;;;58.30;5.63;;;;;;;;;;5091189;28;20549;-60
2022/11/21 10:58:31;;;;;;;98.53;6.35;;;;;;;;;;5091016;28;20058;-62
2022/11/21 11:00:57;;;;;;;87.45;5.78;;;;;;;;;;5095249;28;20105;-60
2022/11/21 11:03:24;;;;;;;64.20;5.32;;;;;;;;;;5094051;28;20062;-62
2022/11/21 11:05:55;;;;;;;78.32;5.85;;;;;;;;;;5111312;28;20110;-67
2022/11/21 11:08:20;;;;;;;41.03;4.55;;;;;;;;;;5095295;28;20016;-69
2022/11/21 11:11:06;;;;;;;55.15;5.50;;;;;;;;;;5095355;28;20103;-70
2022/11/21 11:13:35;;;;;;;;;;;;;;;;;;5095875;28;20020;-65
2022/11/21 11:16:09;;;;;;;12.50;2.40;;;;;;;;;;5094779;28;19910;-66
2022/11/21 11:18:58;;;;;;;13.05;2.90;;;;;;;;;;5095102;28;20380;-66
2022/11/21 11:21:24;;;;;;;9.48;2.60;;;;;;;;;;5091544;28;20400;-66
2022/11/21 11:23:50;;;;;;;9.15;3.10;;;;;;;;;;5110313;28;20016;-66
2022/11/21 11:26:18;;;;;;;6.13;1.70;;;;;;;;;;5094808;28;20380;-64
2022/11/21 11:28:44;;;;;;;8.63;2.83;;;;;;;;;;5094933;28;20024;-65
2022/11/21 11:31:10;;;;;;;13.02;3.10;;;;;;;;;;5094727;28;20038;-66
2022/11/21 11:33:37;;;;;;;8.73;3.22;;;;;;;;;;5110388;28;20388;-64
2022/11/21 11:36:23;;;;;;;10.55;2.75;;;;;;;;;;5110213;28;20464;-66
2022/11/21 11:38:53;;;;;;;10.45;2.92;;;;;;;;;;5109812;28;20035;-66
2022/11/21 11:47:29;;;;;;;8.57;2.60;;;;;;;;;;5094609;28;20024;-68
2022/11/21 11:47:30;;;;;;;7.93;2.83;;;;;;;;;;5092687;28;20090;-69
2022/11/21 11:50:15;;;;;;;8.27;2.42;;;;;;;;;;5110111;28;20426;-71
2022/11/21 11:52:50;;;;;;;8.23;2.20;;;;;;;;;;5109625;28;20391;-70
2022/11/21 11:55:16;;;;;;;;;;;;;;;;;;5094030;28;20130;-70
2022/11/21 11:57:41;;;;;;;13.20;4.20;;;;;;;;;;5093784;28;20004;-68
2022/11/21 12:00:07;;;;;;;14.23;5.22;;;;;;;;;;5093795;28;20032;-68
2022/11/21 12:02:56;;;;;;;12.45;4.70;;;;;;;;;;5109281;28;20115;-72
2022/11/21 12:05:26;;;;;;;11.15;3.97;;;;;;;;;;5094568;28;20130;-71
2022/11/21 12:08:15;;;;;;;8.93;3.97;;;;;;;;;;5094270;28;20469;-70
2022/11/21 12:13:32;;;;;;;9.27;3.85;;;;;;;;;;5094323;28;20155;-72
2022/11/21 12:16:02;;;;;;;12.48;4.65;;;;;;;;;;5093689;28;20961;-71
2022/11/21 12:18:56;;;;;;;10.60;4.20;;;;;;;;;;5109485;28;20031;-72
2022/11/21 12:21:22;;;;;;;6.97;3.90;;;;;;;;;;5088550;28;20024;-73
2022/11/21 12:23:49;;;;;;;9.27;4.47;;;;;;;;;;5093412;28;20020;-74
2022/11/21 12:26:29;;;;;;;9.82;5.13;;;;;;;;;;5093530;28;20061;-73
2022/11/21 12:28:55;;;;;;;10.05;4.03;;;;;;;;;;5093724;28;20019;-71
2022/11/21 12:31:25;;;;;;;9.60;5.00;;;;;;;;;;5093553;28;20020;-69
2022/11/21 12:34:11;;;;;;;9.68;4.70;;;;;;;;;;5109261;28;20127;-70
2022/11/21 12:37:00;;;;;;;12.35;4.97;;;;;;;;;;5089707;28;20032;-68
2022/11/21 12:39:38;;;;;;;8.30;4.18;;;;;;;;;;5090004;28;20055;-65
2022/11/21 12:44:59;;;;;;;;;;;;;;;;;;5093807;28;20035;-66
2022/11/21 12:56:42;;;;;;;9.30;4.55;;;;;;;;;;5093188;28;20027;-65
2022/11/21 12:59:09;;;;;;;7.68;4.25;;;;;;;;;;5084067;28;20048;-66
2022/11/21 13:01:45;;;;;;;11.05;3.75;;;;;;;;;;5093154;28;20044;-67
2022/11/21 13:04:22;;;;;;;10.80;4.68;;;;;;;;;;5093768;28;20418;-65
2022/11/21 13:06:48;;;;;;;8.25;4.22;;;;;;;;;;5108462;28;20362;-65
2022/11/21 13:09:19;;;;;;;9.30;3.28;;;;;;;;;;5092614;28;20022;-65
2022/11/21 13:11:59;;;;;;;3.70;1.10;;;;;;;;;;5092902;28;20031;-67
2022/11/21 13:14:35;;;;;;;3.60;1.15;;;;;;;;;;5092976;28;20031;-68
2022/11/21 13:17:19;;;;;;;0.30;0.30;;;;;;;;;;5092953;28;20031;-68
2022/11/21 13:19:56;;;;;;;0.00;0.00;;;;;;;;;;5092771;28;20024;-66
2022/11/21 13:22:51;;;;;;;0.00;0.00;;;;;;;;;;5092407;28;20156;-67
2022/11/21 13:25:29;;;;;;;0.00;0.00;;;;;;;;;;5087512;28;20032;-68
2022/11/21 13:27:54;;;;;;;0.52;0.43;;;;;;;;;;5108407;28;20516;-66
2022/11/21 13:30:21;;;;;;;0.00;0.00;;;;;;;;;;5092763;28;20012;-67
2022/11/21 13:32:48;;;;;;;1.55;0.90;;;;;;;;;;5092512;28;20046;-70
2022/11/21 13:35:13;;;;;;;0.20;0.20;;;;;;;;;;5092312;28;20499;-68
2022/11/21 13:37:48;;;;;;;0.15;0.15;;;;;;;;;;5092363;28;20016;-66
2022/11/21 13:40:33;;;;;;;0.28;0.28;;;;;;;;;;5107963;28;20028;-64
2022/11/21 13:42:59;;;;;;;;;;;;;;;;;;5091566;28;20033;-65
2022/11/21 13:45:39;;;;;;;0.00;0.00;;;;;;;;;;5092024;28;20013;-63
2022/11/21 13:48:23;;;;;;;0.20;0.20;;;;;;;;;;5092120;28;20020;-64
2022/11/21 13:50:58;;;;;;;0.00;0.00;;;;;;;;;;5092215;28;20376;-63
2022/11/21 13:53:30;;;;;;;0.00;0.00;;;;;;;;;;5092193;28;20023;-63
2022/11/21 13:55:57;;;;;;;0.00;0.00;;;;;;;;;;5091790;28;20073;-63
2022/11/21 13:58:45;;;;;;;0.30;0.22;;;;;;;;;;5091384;28;20109;-62
2022/11/21 14:01:12;;;;;;;0.00;0.00;;;;;;;;;;5080892;28;20040;-61
2022/11/21 14:03:42;;;;;;;0.20;0.20;;;;;;;;;;5091228;28;20361;-61
2022/11/21 14:06:22;;;;;;;0.40;0.40;;;;;;;;;;5107027;28;20426;-62
2022/11/21 14:09:05;;;;;;;8.70;4.00;;;;;;;;;;5091469;28;20031;-61
2022/11/21 14:11:35;;;;;;;11.25;5.38;;;;;;;;;;5091665;28;20117;-60
2022/11/21 14:14:00;;;;;;;21.88;6.00;;;;;;;;;;5106484;28;20060;-61
2022/11/21 14:16:30;;;;;;;9.07;5.35;;;;;;;;;;5091547;28;20518;-61
2022/11/21 14:18:56;;;;;;;11.88;6.47;;;;;;;;;;5107078;28;20042;-62
2022/11/21 14:21:25;;;;;;;12.13;5.97;;;;;;;;;;5091463;28;20468;-61
2022/11/21 14:23:53;;;;;;;10.90;5.90;;;;;;;;;;5091455;28;20024;-60
2022/11/21 14:26:20;;;;;;;11.13;5.80;;;;;;;;;;5091554;28;20133;-60
2022/11/21 14:28:46;;;;;;;10.50;6.03;;;;;;;;;;5091560;28;20051;-60
2022/11/21 14:31:12;;;;;;;9.80;5.20;;;;;;;;;;5091060;28;20012;-60
2022/11/21 14:33:41;;;;;;;0.43;0.43;;;;;;;;;;5090862;28;20099;-62
2022/11/21 14:36:20;;;;;;;5.57;1.38;;;;;;;;;;5090954;28;20386;-62
2022/11/21 14:38:50;;;;;;;0.63;0.63;;;;;;;;;;5106965;28;20040;-63
2022/11/21 14:41:24;;;;;;;0.05;0.05;;;;;;;;;;5091203;28;20460;-62
2022/11/21 14:43:56;;;;;;;0.90;0.63;;;;;;;;;;5091233;28;20052;-61
2022/11/21 14:46:21;;;;;;;0.20;0.10;;;;;;;;;;5091563;28;20081;-61
2022/11/21 14:48:47;;;;;;;0.00;0.00;;;;;;;;;;5091247;28;20123;-60
2022/11/21 14:51:16;;;;;;;0.15;0.15;;;;;;;;;;5091434;28;20128;-60
2022/11/21 14:53:42;;;;;;;0.95;0.52;;;;;;;;;;5106573;28;20085;-61
2022/11/21 14:56:18;;;;;;;0.47;0.43;;;;;;;;;;5106722;28;20024;-59
2022/11/21 14:58:44;;;;;;;1.75;1.65;;;;;;;;;;5090621;28;20063;-62
2022/11/21 15:01:26;;;;;;;0.10;0.10;;;;;;;;;;5090618;28;20476;-59
2022/11/21 15:04:02;;;;;;;0.65;0.60;;;;;;;;;;5091127;28;20473;-61
2022/11/21 15:06:32;;;;;;;0.13;0.13;;;;;;;;;;5091042;28;20465;-60
2022/11/21 15:08:58;;;;;;;0.57;0.57;;;;;;;;;;5090435;28;20031;-59
2022/11/21 15:11:31;;;;;;;0.15;0.15;;;;;;;;;;5090900;28;20016;-61
2022/11/21 15:13:59;;;;;;;0.00;0.00;;;;;;;;;;5090709;28;20026;-61